DuBois Regional Airport Dubois US
ICAO: KDUJ
IATA: DUJ
Category: Medium
Scheduled Services: Yes

Elevation: 1817 ft
TransAlt. 18000 ft.

Airport Communications:
ASOS:119.025
CLEVELAND CNTR:126.72
CTAF:123
ALTOONA RDO:122.2
UNICOM:123

KDUJ Zoom In..

Runways:

(A) RW 07 length 5503 ft width 100 ft
---- / hdg 72

(B) RW 25 length 5503 ft width 100 ft
ILS 109.90 / hdg 252

Location; KDUJ
Day. 19 / Time. 02.53 Zulu
* Altimeter: 30.08
* Temperature: 18° c. 64.4°f.
* Wind from: 010° Speed 05 kn.
Dewpoint: 12° c.
Visibility: 10 Statute Miles.
Clouds: Clear (automated report).

KDUJ 190253Z AUTO 01005KT 10SM CLR 18/12 A3008 RMK AO2 SLP177 T01780122 53013 $


Wind From 010°
Speed 05 kn.

 
 
jpsmedia.com for Web Design worldairports.se 2018   terms of use